Meath Environmental Platform

Observations

Time Sensor AQI SAQ Temp °C Hum % Pres Pa CO μg/m³ H₂S μg/m³ NO μg/m³ NO₂ μg/m³ O₃ μg/m³ SO₂ μg/m³ CO₂e PPM VOC PPM PM1 μg/m³ PM2.5 μg/m³ PM4 μg/m³ PM10 μg/m³ TPS µm
Thursday 13 August 2026
04:20 Trim Patrick St 2 20.9 78 38,460 0 7.85 1.59 20.81 26.71 4.92 6.29 10.29 11.32
04:19 Trim Patrick St 2 20.9 78 38,460 0 3.9 1.71 15.42 26.71 5.09 6.29 10.3 11.33
04:18 Trim Patrick St 2 20.9 78 38,460 0 2 1.74 10.05 29.78 5.04 5.43 8.87 9.76
04:17 Trim Patrick St 2 20.9 78 38,460 0 5.03 1.7 11.73 31.18 5.16 6.29 10.27 11.3
04:14 Trim Market St 2 21.5 74 31,542 0.01 0 1.28 12.9 36.71 0 2.85 3.82 6.33
04:14 Trim Patrick St 2 20.9 76 38,460 0 11.12 1.38 33.5 22.27 4.06 6.29 9.71 10.68
04:13 Trim Patrick St 2 20.9 77 38,460 0 8.48 1.45 20 22.23 4.65 8 12.45 13.7
04:12 Trim Patrick St 2 20.9 76 38,460 0 6.74 1.24 16.75 33.45 5.33 6.29 9.76 10.73
04:11 Trim Market St 2 21.5 74 32,506 0.01 0 1.19 12.69 40.13 0 2.85 4.78 8.13
04:11 Trim Patrick St 2 20.9 77 38,460 0 6.24 1.29 12.05 36.77 5.69 5.43 8.97 9.87
04:10 Trim Patrick St 2 20.9 78 38,460 0 10.49 1.34 25.02 25.05 4.43 7.14 11.02 12.12
04:09 Trim Market St 2 21.5 74 33,030 0.02 0 1.19 13.74 41.57 0 2.14 3.35 5.72
04:09 Trim Patrick St 2 20.9 76 38,460 0 7.48 1.3 17.02 28.71 5.23 7.14 10.46 11.5
04:08 Trim Market St 2 21.5 74 33,365 0.02 0 1.12 13.32 40.7 0 3.56 5.75 8.74
04:08 Trim Patrick St 2 20.9 78 38,460 0 8.8 1.44 19.97 31.09 5.03 7.14 10.32 11.35
04:07 Trim Patrick St 2 20.9 78 38,460 0 7.32 1.47 20.39 22.16 4.82 5.43 10.3 11.33
04:05 Trim Patrick St 2 21 77 38,460 0 5.47 1.46 13.18 37.57 5.81 8 11.74 12.91
04:03 Trim Patrick St 2 21 78 38,460 0 9.83 1.48 28.33 21.83 5.03 8 13.11 14.42
04:02 Trim Patrick St 2 21 78 38,460 0 10.14 1.49 14.06 28.3 5.42 5.43 9.59 10.55
04:01 Trim Patrick St 2 21 76 38,460 0 12.88 1.32 28.62 32.87 5.31 7.14 11.13 12.24